sensor_id;sensor_type;location;lat;lon;timestamp;temperature;humidity
67147;DHT22;54061;52.036;5.558;2022-09-16T00:00:41;13.60;83.80
67147;DHT22;54061;52.036;5.558;2022-09-16T00:03:08;13.50;83.70
67147;DHT22;54061;52.036;5.558;2022-09-16T00:05:33;13.60;83.70
67147;DHT22;54061;52.036;5.558;2022-09-16T00:08:02;13.60;83.50
67147;DHT22;54061;52.036;5.558;2022-09-16T00:10:28;13.70;83.20
67147;DHT22;54061;52.036;5.558;2022-09-16T00:12:54;13.80;83.70
67147;DHT22;54061;52.036;5.558;2022-09-16T00:15:19;13.80;82.90
67147;DHT22;54061;52.036;5.558;2022-09-16T00:17:45;13.80;82.90
67147;DHT22;54061;52.036;5.558;2022-09-16T00:20:11;13.80;82.90
67147;DHT22;54061;52.036;5.558;2022-09-16T00:22:36;13.80;82.80
67147;DHT22;54061;52.036;5.558;2022-09-16T00:25:02;13.90;82.90
67147;DHT22;54061;52.036;5.558;2022-09-16T00:27:27;13.90;83.10
67147;DHT22;54061;52.036;5.558;2022-09-16T00:29:53;13.90;83.10
67147;DHT22;54061;52.036;5.558;2022-09-16T00:32:18;13.80;83.30
67147;DHT22;54061;52.036;5.558;2022-09-16T00:34:44;13.80;83.50
67147;DHT22;54061;52.036;5.558;2022-09-16T00:37:10;13.70;83.90
67147;DHT22;54061;52.036;5.558;2022-09-16T00:39:36;13.70;84.00
67147;DHT22;54061;52.036;5.558;2022-09-16T00:42:02;13.60;84.60
67147;DHT22;54061;52.036;5.558;2022-09-16T00:47:43;13.50;85.70
67147;DHT22;54061;52.036;5.558;2022-09-16T00:50:40;13.50;86.60
67147;DHT22;54061;52.036;5.558;2022-09-16T00:53:14;13.50;86.10
67147;DHT22;54061;52.036;5.558;2022-09-16T00:55:41;13.40;85.30
67147;DHT22;54061;52.036;5.558;2022-09-16T01:00:54;13.40;86.40
67147;DHT22;54061;52.036;5.558;2022-09-16T01:03:19;13.30;85.10
67147;DHT22;54061;52.036;5.558;2022-09-16T01:05:45;13.30;85.50
67147;DHT22;54061;52.036;5.558;2022-09-16T01:08:12;13.30;85.40
67147;DHT22;54061;52.036;5.558;2022-09-16T01:10:40;13.30;85.50
67147;DHT22;54061;52.036;5.558;2022-09-16T01:13:08;13.30;85.70
67147;DHT22;54061;52.036;5.558;2022-09-16T01:18:32;13.30;86.50
67147;DHT22;54061;52.036;5.558;2022-09-16T01:48:20;13.40;86.00
67147;DHT22;54061;52.036;5.558;2022-09-16T01:50:58;13.40;88.30
67147;DHT22;54061;52.036;5.558;2022-09-16T01:53:33;13.40;86.50
67147;DHT22;54061;52.036;5.558;2022-09-16T01:56:07;13.30;86.30
67147;DHT22;54061;52.036;5.558;2022-09-16T01:58:52;13.30;87.00
67147;DHT22;54061;52.036;5.558;2022-09-16T02:01:37;13.30;88.10
67147;DHT22;54061;52.036;5.558;2022-09-16T02:04:11;13.20;87.40
67147;DHT22;54061;52.036;5.558;2022-09-16T02:06:40;13.20;87.30
67147;DHT22;54061;52.036;5.558;2022-09-16T02:09:19;13.20;86.90
67147;DHT22;54061;52.036;5.558;2022-09-16T02:11:48;13.20;87.40
67147;DHT22;54061;52.036;5.558;2022-09-16T02:14:19;13.20;86.80
67147;DHT22;54061;52.036;5.558;2022-09-16T02:16:57;13.10;86.80
67147;DHT22;54061;52.036;5.558;2022-09-16T02:19:30;13.10;86.30
67147;DHT22;54061;52.036;5.558;2022-09-16T02:21:58;13.10;86.60
67147;DHT22;54061;52.036;5.558;2022-09-16T02:24:25;13.10;86.60
67147;DHT22;54061;52.036;5.558;2022-09-16T02:26:54;13.00;86.80
67147;DHT22;54061;52.036;5.558;2022-09-16T02:29:24;13.00;86.80
67147;DHT22;54061;52.036;5.558;2022-09-16T02:31:54;12.90;87.10
67147;DHT22;54061;52.036;5.558;2022-09-16T02:34:33;12.80;87.20
67147;DHT22;54061;52.036;5.558;2022-09-16T02:37:05;12.80;87.70
67147;DHT22;54061;52.036;5.558;2022-09-16T02:39:34;12.80;87.60
67147;DHT22;54061;52.036;5.558;2022-09-16T02:42:01;12.70;87.10
67147;DHT22;54061;52.036;5.558;2022-09-16T02:44:28;12.70;87.40
67147;DHT22;54061;52.036;5.558;2022-09-16T02:47:12;12.70;87.30
67147;DHT22;54061;52.036;5.558;2022-09-16T02:52:38;12.80;88.50
67147;DHT22;54061;52.036;5.558;2022-09-16T02:57:40;12.90;89.00
67147;DHT22;54061;52.036;5.558;2022-09-16T03:00:07;12.90;87.30
67147;DHT22;54061;52.036;5.558;2022-09-16T03:02:33;12.90;87.50
67147;DHT22;54061;52.036;5.558;2022-09-16T03:04:59;12.90;87.20
67147;DHT22;54061;52.036;5.558;2022-09-16T03:07:25;12.90;87.30
67147;DHT22;54061;52.036;5.558;2022-09-16T03:09:51;12.90;87.30
67147;DHT22;54061;52.036;5.558;2022-09-16T03:20:59;12.90;88.60
67147;DHT22;54061;52.036;5.558;2022-09-16T03:26:33;13.00;87.10
67147;DHT22;54061;52.036;5.558;2022-09-16T03:29:21;13.00;88.90
67147;DHT22;54061;52.036;5.558;2022-09-16T03:32:01;13.00;88.90
67147;DHT22;54061;52.036;5.558;2022-09-16T03:34:48;13.00;87.50
67147;DHT22;54061;52.036;5.558;2022-09-16T03:37:18;13.00;88.50
67147;DHT22;54061;52.036;5.558;2022-09-16T03:39:52;13.00;87.90
67147;DHT22;54061;52.036;5.558;2022-09-16T03:42:19;13.00;88.50
67147;DHT22;54061;52.036;5.558;2022-09-16T03:44:44;12.90;87.90
67147;DHT22;54061;52.036;5.558;2022-09-16T03:47:10;12.80;88.40
67147;DHT22;54061;52.036;5.558;2022-09-16T03:49:36;12.80;88.20
67147;DHT22;54061;52.036;5.558;2022-09-16T03:52:03;12.80;88.40
67147;DHT22;54061;52.036;5.558;2022-09-16T03:54:33;12.80;88.60
67147;DHT22;54061;52.036;5.558;2022-09-16T03:56:58;12.80;88.30
67147;DHT22;54061;52.036;5.558;2022-09-16T03:59:25;12.90;88.60
67147;DHT22;54061;52.036;5.558;2022-09-16T04:01:51;12.80;88.70
67147;DHT22;54061;52.036;5.558;2022-09-16T04:04:16;12.80;88.90
67147;DHT22;54061;52.036;5.558;2022-09-16T04:06:42;12.80;88.90
67147;DHT22;54061;52.036;5.558;2022-09-16T04:09:10;12.80;89.10
67147;DHT22;54061;52.036;5.558;2022-09-16T04:11:37;12.80;89.10
67147;DHT22;54061;52.036;5.558;2022-09-16T04:14:03;12.80;89.50
67147;DHT22;54061;52.036;5.558;2022-09-16T04:16:29;12.80;89.30
67147;DHT22;54061;52.036;5.558;2022-09-16T04:18:55;12.80;89.50
67147;DHT22;54061;52.036;5.558;2022-09-16T04:21:21;12.80;90.10
67147;DHT22;54061;52.036;5.558;2022-09-16T04:23:47;12.80;89.90
67147;DHT22;54061;52.036;5.558;2022-09-16T04:26:14;12.80;90.00
67147;DHT22;54061;52.036;5.558;2022-09-16T04:28:39;12.80;89.80
67147;DHT22;54061;52.036;5.558;2022-09-16T04:31:08;12.70;89.70
67147;DHT22;54061;52.036;5.558;2022-09-16T04:33:34;12.70;89.80
67147;DHT22;54061;52.036;5.558;2022-09-16T04:38:27;12.70;89.80
67147;DHT22;54061;52.036;5.558;2022-09-16T04:41:04;12.70;89.70
67147;DHT22;54061;52.036;5.558;2022-09-16T04:43:30;12.70;90.10
67147;DHT22;54061;52.036;5.558;2022-09-16T04:45:56;12.60;89.80
67147;DHT22;54061;52.036;5.558;2022-09-16T04:48:21;12.60;90.20
67147;DHT22;54061;52.036;5.558;2022-09-16T04:50:47;12.60;90.00
67147;DHT22;54061;52.036;5.558;2022-09-16T04:53:13;12.50;90.00
67147;DHT22;54061;52.036;5.558;2022-09-16T04:55:38;12.60;90.00
67147;DHT22;54061;52.036;5.558;2022-09-16T04:58:04;12.60;89.90
67147;DHT22;54061;52.036;5.558;2022-09-16T05:00:29;12.60;89.50
67147;DHT22;54061;52.036;5.558;2022-09-16T05:02:55;12.60;89.40
67147;DHT22;54061;52.036;5.558;2022-09-16T05:05:20;12.60;89.50
67147;DHT22;54061;52.036;5.558;2022-09-16T05:07:46;12.50;89.20
67147;DHT22;54061;52.036;5.558;2022-09-16T05:10:11;12.50;89.20
67147;DHT22;54061;52.036;5.558;2022-09-16T05:12:37;12.50;89.10
67147;DHT22;54061;52.036;5.558;2022-09-16T05:15:03;12.40;89.50
67147;DHT22;54061;52.036;5.558;2022-09-16T05:17:29;12.40;89.30
67147;DHT22;54061;52.036;5.558;2022-09-16T05:19:56;12.40;89.30
67147;DHT22;54061;52.036;5.558;2022-09-16T05:22:22;12.40;89.20
67147;DHT22;54061;52.036;5.558;2022-09-16T05:24:47;12.40;89.10
67147;DHT22;54061;52.036;5.558;2022-09-16T05:27:13;12.40;89.10
67147;DHT22;54061;52.036;5.558;2022-09-16T05:29:39;12.40;88.90
67147;DHT22;54061;52.036;5.558;2022-09-16T05:32:04;12.40;88.90
67147;DHT22;54061;52.036;5.558;2022-09-16T05:34:30;12.40;88.90
67147;DHT22;54061;52.036;5.558;2022-09-16T05:36:56;12.30;88.80
67147;DHT22;54061;52.036;5.558;2022-09-16T05:39:23;12.40;89.80
67147;DHT22;54061;52.036;5.558;2022-09-16T05:41:52;12.40;88.90
67147;DHT22;54061;52.036;5.558;2022-09-16T05:44:17;12.40;89.20
67147;DHT22;54061;52.036;5.558;2022-09-16T05:46:43;12.40;89.20
67147;DHT22;54061;52.036;5.558;2022-09-16T05:49:09;12.40;89.40
67147;DHT22;54061;52.036;5.558;2022-09-16T05:51:37;12.40;89.20
67147;DHT22;54061;52.036;5.558;2022-09-16T05:54:02;12.40;89.80
67147;DHT22;54061;52.036;5.558;2022-09-16T05:56:29;12.40;89.20
67147;DHT22;54061;52.036;5.558;2022-09-16T05:58:57;12.50;89.20
67147;DHT22;54061;52.036;5.558;2022-09-16T06:01:29;12.50;89.70
67147;DHT22;54061;52.036;5.558;2022-09-16T06:03:55;12.60;89.70
67147;DHT22;54061;52.036;5.558;2022-09-16T06:06:31;12.60;89.70
67147;DHT22;54061;52.036;5.558;2022-09-16T06:08:59;12.60;90.20
67147;DHT22;54061;52.036;5.558;2022-09-16T06:11:26;12.60;89.80
67147;DHT22;54061;52.036;5.558;2022-09-16T06:13:53;12.70;89.90
67147;DHT22;54061;52.036;5.558;2022-09-16T06:16:23;12.70;89.90
67147;DHT22;54061;52.036;5.558;2022-09-16T06:18:53;12.70;90.00
67147;DHT22;54061;52.036;5.558;2022-09-16T06:21:19;12.60;90.00
67147;DHT22;54061;52.036;5.558;2022-09-16T06:23:45;12.60;90.10
67147;DHT22;54061;52.036;5.558;2022-09-16T06:26:14;12.60;90.00
67147;DHT22;54061;52.036;5.558;2022-09-16T06:28:40;12.60;90.10
67147;DHT22;54061;52.036;5.558;2022-09-16T06:33:35;12.60;90.00
67147;DHT22;54061;52.036;5.558;2022-09-16T06:36:10;12.60;90.10
67147;DHT22;54061;52.036;5.558;2022-09-16T06:38:36;12.60;90.50
67147;DHT22;54061;52.036;5.558;2022-09-16T06:41:04;12.60;90.10
67147;DHT22;54061;52.036;5.558;2022-09-16T06:43:30;12.60;90.20
67147;DHT22;54061;52.036;5.558;2022-09-16T06:46:11;12.60;90.30
67147;DHT22;54061;52.036;5.558;2022-09-16T06:48:45;12.70;90.70
67147;DHT22;54061;52.036;5.558;2022-09-16T06:51:13;12.70;90.20
67147;DHT22;54061;52.036;5.558;2022-09-16T06:53:40;12.80;90.10
67147;DHT22;54061;52.036;5.558;2022-09-16T06:56:08;12.90;90.00
67147;DHT22;54061;52.036;5.558;2022-09-16T06:58:38;13.00;89.60
67147;DHT22;54061;52.036;5.558;2022-09-16T07:01:06;13.10;89.70
67147;DHT22;54061;52.036;5.558;2022-09-16T07:03:32;13.10;89.70
67147;DHT22;54061;52.036;5.558;2022-09-16T07:06:01;13.10;89.70
67147;DHT22;54061;52.036;5.558;2022-09-16T07:08:30;13.00;90.00
67147;DHT22;54061;52.036;5.558;2022-09-16T07:11:01;13.00;90.10
67147;DHT22;54061;52.036;5.558;2022-09-16T07:13:27;13.10;90.10
67147;DHT22;54061;52.036;5.558;2022-09-16T07:15:53;13.30;90.00
67147;DHT22;54061;52.036;5.558;2022-09-16T07:18:18;13.40;89.60
67147;DHT22;54061;52.036;5.558;2022-09-16T07:20:44;13.50;89.50
67147;DHT22;54061;52.036;5.558;2022-09-16T07:23:10;13.60;89.20
67147;DHT22;54061;52.036;5.558;2022-09-16T07:25:35;13.70;89.40
67147;DHT22;54061;52.036;5.558;2022-09-16T07:28:01;13.70;89.40
67147;DHT22;54061;52.036;5.558;2022-09-16T07:30:27;13.70;89.60
67147;DHT22;54061;52.036;5.558;2022-09-16T07:32:54;13.70;89.40
67147;DHT22;54061;52.036;5.558;2022-09-16T07:35:20;13.80;89.30
67147;DHT22;54061;52.036;5.558;2022-09-16T07:37:45;13.80;89.10
67147;DHT22;54061;52.036;5.558;2022-09-16T07:40:11;13.80;89.20
67147;DHT22;54061;52.036;5.558;2022-09-16T07:42:38;13.90;89.40
67147;DHT22;54061;52.036;5.558;2022-09-16T07:45:04;13.90;89.20
67147;DHT22;54061;52.036;5.558;2022-09-16T07:47:30;13.90;89.20
67147;DHT22;54061;52.036;5.558;2022-09-16T07:49:56;14.00;89.10
67147;DHT22;54061;52.036;5.558;2022-09-16T07:52:22;14.10;88.80
67147;DHT22;54061;52.036;5.558;2022-09-16T07:54:56;14.20;88.50
67147;DHT22;54061;52.036;5.558;2022-09-16T07:57:21;14.20;88.20
67147;DHT22;54061;52.036;5.558;2022-09-16T07:59:47;14.20;88.40
67147;DHT22;54061;52.036;5.558;2022-09-16T08:02:14;14.20;88.10
67147;DHT22;54061;52.036;5.558;2022-09-16T08:04:40;14.30;87.80
67147;DHT22;54061;52.036;5.558;2022-09-16T08:07:06;14.40;87.80
67147;DHT22;54061;52.036;5.558;2022-09-16T08:09:32;14.50;87.40
67147;DHT22;54061;52.036;5.558;2022-09-16T08:11:58;14.60;86.90
67147;DHT22;54061;52.036;5.558;2022-09-16T08:14:25;14.80;86.90
67147;DHT22;54061;52.036;5.558;2022-09-16T08:16:51;14.90;86.30
67147;DHT22;54061;52.036;5.558;2022-09-16T08:19:17;15.10;85.90
67147;DHT22;54061;52.036;5.558;2022-09-16T08:21:43;15.30;85.50
67147;DHT22;54061;52.036;5.558;2022-09-16T08:24:09;15.40;85.20
67147;DHT22;54061;52.036;5.558;2022-09-16T08:26:35;15.50;85.30
67147;DHT22;54061;52.036;5.558;2022-09-16T08:29:01;15.60;84.30
67147;DHT22;54061;52.036;5.558;2022-09-16T08:31:26;15.90;84.10
67147;DHT22;54061;52.036;5.558;2022-09-16T08:33:52;15.90;83.50
67147;DHT22;54061;52.036;5.558;2022-09-16T08:36:20;15.90;83.40
67147;DHT22;54061;52.036;5.558;2022-09-16T08:38:48;15.90;83.70
67147;DHT22;54061;52.036;5.558;2022-09-16T08:44:27;15.70;82.40
67147;DHT22;54061;52.036;5.558;2022-09-16T08:47:03;15.50;84.50
67147;DHT22;54061;52.036;5.558;2022-09-16T08:49:51;15.60;85.60
67147;DHT22;54061;52.036;5.558;2022-09-16T08:52:33;15.70;86.40
67147;DHT22;54061;52.036;5.558;2022-09-16T08:57:38;16.60;87.70
67147;DHT22;54061;52.036;5.558;2022-09-16T09:00:16;16.80;89.60
67147;DHT22;54061;52.036;5.558;2022-09-16T09:06:27;17.60;84.00
67147;DHT22;54061;52.036;5.558;2022-09-16T09:11:49;18.40;92.00
67147;DHT22;54061;52.036;5.558;2022-09-16T09:17:06;19.10;93.50
67147;DHT22;54061;52.036;5.558;2022-09-16T09:19:47;19.60;91.20
67147;DHT22;54061;52.036;5.558;2022-09-16T09:25:49;19.90;76.60
67147;DHT22;54061;52.036;5.558;2022-09-16T09:28:41;20.20;85.40
67147;DHT22;54061;52.036;5.558;2022-09-16T09:31:32;20.60;85.10
67147;DHT22;54061;52.036;5.558;2022-09-16T09:34:31;20.80;90.00
67147;DHT22;54061;52.036;5.558;2022-09-16T09:40:16;20.20;83.30
67147;DHT22;54061;52.036;5.558;2022-09-16T09:45:36;19.10;89.80
67147;DHT22;54061;52.036;5.558;2022-09-16T09:51:30;18.50;89.50
67147;DHT22;54061;52.036;5.558;2022-09-16T09:54:01;18.90;89.00
67147;DHT22;54061;52.036;5.558;2022-09-16T09:56:34;19.30;89.40
67147;DHT22;54061;52.036;5.558;2022-09-16T09:59:24;19.40;88.70
67147;DHT22;54061;52.036;5.558;2022-09-16T10:01:53;19.80;79.50
67147;DHT22;54061;52.036;5.558;2022-09-16T10:04:19;20.20;90.40
67147;DHT22;54061;52.036;5.558;2022-09-16T10:06:44;20.40;90.40
67147;DHT22;54061;52.036;5.558;2022-09-16T10:09:14;20.40;89.90
67147;DHT22;54061;52.036;5.558;2022-09-16T10:11:52;20.30;79.30
67147;DHT22;54061;52.036;5.558;2022-09-16T10:14:26;20.30;82.60
67147;DHT22;54061;52.036;5.558;2022-09-16T10:16:54;20.50;80.50
67147;DHT22;54061;52.036;5.558;2022-09-16T10:19:23;20.90;90.00
67147;DHT22;54061;52.036;5.558;2022-09-16T10:21:55;21.20;88.80
67147;DHT22;54061;52.036;5.558;2022-09-16T10:24:29;21.40;88.50
67147;DHT22;54061;52.036;5.558;2022-09-16T10:26:55;21.60;88.30
67147;DHT22;54061;52.036;5.558;2022-09-16T10:29:21;21.50;87.10
67147;DHT22;54061;52.036;5.558;2022-09-16T10:31:47;21.60;88.30
67147;DHT22;54061;52.036;5.558;2022-09-16T10:34:30;21.80;87.20
67147;DHT22;54061;52.036;5.558;2022-09-16T10:36:59;21.50;76.10
67147;DHT22;54061;52.036;5.558;2022-09-16T10:39:26;20.80;80.20
67147;DHT22;54061;52.036;5.558;2022-09-16T10:41:52;20.50;79.80
67147;DHT22;54061;52.036;5.558;2022-09-16T10:44:27;20.40;79.10
67147;DHT22;54061;52.036;5.558;2022-09-16T10:49:33;19.30;76.70
67147;DHT22;54061;52.036;5.558;2022-09-16T10:52:07;19.00;76.80
67147;DHT22;54061;52.036;5.558;2022-09-16T10:54:33;18.50;74.20
67147;DHT22;54061;52.036;5.558;2022-09-16T10:56:58;18.20;77.80
67147;DHT22;54061;52.036;5.558;2022-09-16T10:59:24;18.00;78.30
67147;DHT22;54061;52.036;5.558;2022-09-16T11:04:39;17.70;79.20
67147;DHT22;54061;52.036;5.558;2022-09-16T11:18:34;19.10;77.00
67147;DHT22;54061;52.036;5.558;2022-09-16T11:32:34;18.10;71.20
67147;DHT22;54061;52.036;5.558;2022-09-16T11:35:31;17.90;72.50
67147;DHT22;54061;52.036;5.558;2022-09-16T11:40:59;17.70;74.10
67147;DHT22;54061;52.036;5.558;2022-09-16T11:57:25;18.10;68.10
67147;DHT22;54061;52.036;5.558;2022-09-16T11:59:59;18.00;71.40
67147;DHT22;54061;52.036;5.558;2022-09-16T12:02:41;18.00;71.00
67147;DHT22;54061;52.036;5.558;2022-09-16T12:05:20;18.00;68.10
67147;DHT22;54061;52.036;5.558;2022-09-16T12:07:53;17.70;69.20
67147;DHT22;54061;52.036;5.558;2022-09-16T12:10:26;17.60;71.30
67147;DHT22;54061;52.036;5.558;2022-09-16T12:15:47;17.30;69.60
67147;DHT22;54061;52.036;5.558;2022-09-16T12:18:20;17.30;71.70
67147;DHT22;54061;52.036;5.558;2022-09-16T12:20:52;17.40;71.10
67147;DHT22;54061;52.036;5.558;2022-09-16T12:23:27;17.60;71.60
67147;DHT22;54061;52.036;5.558;2022-09-16T12:26:15;17.90;70.40
67147;DHT22;54061;52.036;5.558;2022-09-16T12:31:45;17.90;68.70
67147;DHT22;54061;52.036;5.558;2022-09-16T12:34:20;18.00;68.80
67147;DHT22;54061;52.036;5.558;2022-09-16T12:36:51;18.10;67.80
67147;DHT22;54061;52.036;5.558;2022-09-16T12:39:20;18.30;68.20
67147;DHT22;54061;52.036;5.558;2022-09-16T12:53:07;19.20;64.10
67147;DHT22;54061;52.036;5.558;2022-09-16T12:56:14;19.20;64.30
67147;DHT22;54061;52.036;5.558;2022-09-16T12:59:15;19.20;63.20
67147;DHT22;54061;52.036;5.558;2022-09-16T13:01:48;18.80;67.50
67147;DHT22;54061;52.036;5.558;2022-09-16T13:04:30;18.50;68.40
67147;DHT22;54061;52.036;5.558;2022-09-16T13:06:58;18.10;64.40
67147;DHT22;54061;52.036;5.558;2022-09-16T13:09:29;17.60;67.50
67147;DHT22;54061;52.036;5.558;2022-09-16T13:12:05;17.40;67.20
67147;DHT22;54061;52.036;5.558;2022-09-16T13:17:10;17.10;66.50
67147;DHT22;54061;52.036;5.558;2022-09-16T13:22:31;16.90;68.50
67147;DHT22;54061;52.036;5.558;2022-09-16T13:25:17;16.80;68.40
67147;DHT22;54061;52.036;5.558;2022-09-16T13:28:01;16.80;67.70
67147;DHT22;54061;52.036;5.558;2022-09-16T13:30:33;16.70;68.30
67147;DHT22;54061;52.036;5.558;2022-09-16T13:33:02;16.50;69.30
67147;DHT22;54061;52.036;5.558;2022-09-16T13:35:46;16.40;69.80
67147;DHT22;54061;52.036;5.558;2022-09-16T13:40:40;16.20;71.10
67147;DHT22;54061;52.036;5.558;2022-09-16T13:43:16;16.30;71.70
67147;DHT22;54061;52.036;5.558;2022-09-16T13:45:43;16.40;71.50
67147;DHT22;54061;52.036;5.558;2022-09-16T13:48:15;16.50;71.40
67147;DHT22;54061;52.036;5.558;2022-09-16T13:50:47;16.80;71.00
67147;DHT22;54061;52.036;5.558;2022-09-16T13:53:23;17.00;70.50
67147;DHT22;54061;52.036;5.558;2022-09-16T13:55:52;17.10;71.00
67147;DHT22;54061;52.036;5.558;2022-09-16T13:58:29;17.30;69.70
67147;DHT22;54061;52.036;5.558;2022-09-16T14:01:03;17.40;68.40
67147;DHT22;54061;52.036;5.558;2022-09-16T14:03:56;17.60;68.40
67147;DHT22;54061;52.036;5.558;2022-09-16T14:06:52;17.70;66.90
67147;DHT22;54061;52.036;5.558;2022-09-16T14:12:57;17.90;66.50
67147;DHT22;54061;52.036;5.558;2022-09-16T14:15:24;18.10;67.60
67147;DHT22;54061;52.036;5.558;2022-09-16T14:17:55;18.00;67.60
67147;DHT22;54061;52.036;5.558;2022-09-16T14:20:23;18.00;67.60
67147;DHT22;54061;52.036;5.558;2022-09-16T14:23:16;18.00;68.00
67147;DHT22;54061;52.036;5.558;2022-09-16T14:25:42;18.10;67.50
67147;DHT22;54061;52.036;5.558;2022-09-16T14:28:08;18.00;67.90
67147;DHT22;54061;52.036;5.558;2022-09-16T14:30:34;17.90;68.00
67147;DHT22;54061;52.036;5.558;2022-09-16T14:33:00;17.80;68.60
67147;DHT22;54061;52.036;5.558;2022-09-16T14:35:26;17.80;68.50
67147;DHT22;54061;52.036;5.558;2022-09-16T14:37:55;17.80;68.20
67147;DHT22;54061;52.036;5.558;2022-09-16T14:40:22;17.90;68.40
67147;DHT22;54061;52.036;5.558;2022-09-16T14:42:50;18.00;67.10
67147;DHT22;54061;52.036;5.558;2022-09-16T14:45:16;17.90;66.70
67147;DHT22;54061;52.036;5.558;2022-09-16T14:47:42;18.00;66.20
67147;DHT22;54061;52.036;5.558;2022-09-16T14:50:19;18.10;66.00
67147;DHT22;54061;52.036;5.558;2022-09-16T14:53:05;18.10;67.10
67147;DHT22;54061;52.036;5.558;2022-09-16T14:55:32;17.80;66.70
67147;DHT22;54061;52.036;5.558;2022-09-16T14:58:01;17.70;67.80
67147;DHT22;54061;52.036;5.558;2022-09-16T15:00:40;17.50;68.10
67147;DHT22;54061;52.036;5.558;2022-09-16T15:06:17;17.10;69.90
67147;DHT22;54061;52.036;5.558;2022-09-16T15:09:06;17.10;69.90
67147;DHT22;54061;52.036;5.558;2022-09-16T15:11:45;17.30;70.90
67147;DHT22;54061;52.036;5.558;2022-09-16T15:14:14;17.20;69.50
67147;DHT22;54061;52.036;5.558;2022-09-16T15:16:44;17.20;69.40
67147;DHT22;54061;52.036;5.558;2022-09-16T15:19:34;17.20;68.50
67147;DHT22;54061;52.036;5.558;2022-09-16T15:22:00;17.10;65.00
67147;DHT22;54061;52.036;5.558;2022-09-16T15:24:30;17.10;66.70
67147;DHT22;54061;52.036;5.558;2022-09-16T15:26:56;17.10;67.20
67147;DHT22;54061;52.036;5.558;2022-09-16T15:31:48;17.10;66.40
67147;DHT22;54061;52.036;5.558;2022-09-16T15:34:19;17.10;66.10
67147;DHT22;54061;52.036;5.558;2022-09-16T15:36:51;17.10;65.60
67147;DHT22;54061;52.036;5.558;2022-09-16T15:39:30;17.10;65.90
67147;DHT22;54061;52.036;5.558;2022-09-16T15:42:13;17.10;66.30
67147;DHT22;54061;52.036;5.558;2022-09-16T15:44:53;17.00;65.70
67147;DHT22;54061;52.036;5.558;2022-09-16T15:47:22;16.90;65.20
67147;DHT22;54061;52.036;5.558;2022-09-16T15:50:01;16.80;66.40
67147;DHT22;54061;52.036;5.558;2022-09-16T15:52:32;16.80;66.60
67147;DHT22;54061;52.036;5.558;2022-09-16T15:55:01;16.80;66.20
67147;DHT22;54061;52.036;5.558;2022-09-16T15:57:38;16.80;66.40
67147;DHT22;54061;52.036;5.558;2022-09-16T16:00:07;16.80;66.10
67147;DHT22;54061;52.036;5.558;2022-09-16T16:02:38;16.80;66.40
67147;DHT22;54061;52.036;5.558;2022-09-16T16:07:44;16.70;66.20
67147;DHT22;54061;52.036;5.558;2022-09-16T16:10:20;16.70;65.10
67147;DHT22;54061;52.036;5.558;2022-09-16T16:12:47;16.50;64.80
67147;DHT22;54061;52.036;5.558;2022-09-16T16:15:20;16.40;65.80
67147;DHT22;54061;52.036;5.558;2022-09-16T16:17:46;16.40;65.70
67147;DHT22;54061;52.036;5.558;2022-09-16T16:20:13;16.40;66.60
67147;DHT22;54061;52.036;5.558;2022-09-16T16:22:39;16.40;66.00
67147;DHT22;54061;52.036;5.558;2022-09-16T16:25:05;16.40;65.80
67147;DHT22;54061;52.036;5.558;2022-09-16T16:27:32;16.40;66.00
67147;DHT22;54061;52.036;5.558;2022-09-16T16:29:58;16.40;65.90
67147;DHT22;54061;52.036;5.558;2022-09-16T16:32:23;16.50;65.80
67147;DHT22;54061;52.036;5.558;2022-09-16T16:34:49;16.50;66.00
67147;DHT22;54061;52.036;5.558;2022-09-16T16:37:16;16.50;65.90
67147;DHT22;54061;52.036;5.558;2022-09-16T16:39:43;16.50;66.50
67147;DHT22;54061;52.036;5.558;2022-09-16T16:42:12;16.50;65.80
67147;DHT22;54061;52.036;5.558;2022-09-16T16:44:38;16.50;65.80
67147;DHT22;54061;52.036;5.558;2022-09-16T16:47:05;16.40;65.90
67147;DHT22;54061;52.036;5.558;2022-09-16T16:49:31;16.40;66.10
67147;DHT22;54061;52.036;5.558;2022-09-16T16:51:58;16.30;66.20
67147;DHT22;54061;52.036;5.558;2022-09-16T16:54:24;16.30;66.60
67147;DHT22;54061;52.036;5.558;2022-09-16T16:56:49;16.20;66.50
67147;DHT22;54061;52.036;5.558;2022-09-16T16:59:16;16.10;66.70
67147;DHT22;54061;52.036;5.558;2022-09-16T17:01:42;16.10;67.20
67147;DHT22;54061;52.036;5.558;2022-09-16T17:04:09;16.00;67.10
67147;DHT22;54061;52.036;5.558;2022-09-16T17:06:36;15.90;67.20
67147;DHT22;54061;52.036;5.558;2022-09-16T17:09:03;15.90;67.40
67147;DHT22;54061;52.036;5.558;2022-09-16T17:11:29;15.70;67.20
67147;DHT22;54061;52.036;5.558;2022-09-16T17:14:00;15.60;67.00
67147;DHT22;54061;52.036;5.558;2022-09-16T17:16:27;15.60;67.30
67147;DHT22;54061;52.036;5.558;2022-09-16T17:18:54;15.40;67.50
67147;DHT22;54061;52.036;5.558;2022-09-16T17:21:22;15.40;67.60
67147;DHT22;54061;52.036;5.558;2022-09-16T17:23:48;15.30;67.90
67147;DHT22;54061;52.036;5.558;2022-09-16T17:26:15;15.30;68.10
67147;DHT22;54061;52.036;5.558;2022-09-16T17:28:43;15.20;68.20
67147;DHT22;54061;52.036;5.558;2022-09-16T17:31:10;15.20;68.20
67147;DHT22;54061;52.036;5.558;2022-09-16T17:33:38;15.10;68.20
67147;DHT22;54061;52.036;5.558;2022-09-16T17:36:05;15.00;68.10
67147;DHT22;54061;52.036;5.558;2022-09-16T17:38:31;15.00;68.00
67147;DHT22;54061;52.036;5.558;2022-09-16T17:41:06;15.00;68.10
67147;DHT22;54061;52.036;5.558;2022-09-16T17:43:32;14.90;68.30
67147;DHT22;54061;52.036;5.558;2022-09-16T17:45:59;14.90;68.10
67147;DHT22;54061;52.036;5.558;2022-09-16T17:48:25;14.90;68.20
67147;DHT22;54061;52.036;5.558;2022-09-16T17:50:52;14.90;68.20
67147;DHT22;54061;52.036;5.558;2022-09-16T17:53:18;14.90;68.20
67147;DHT22;54061;52.036;5.558;2022-09-16T17:55:44;14.90;68.30
67147;DHT22;54061;52.036;5.558;2022-09-16T17:58:10;14.80;68.30
67147;DHT22;54061;52.036;5.558;2022-09-16T18:00:37;14.80;68.30
67147;DHT22;54061;52.036;5.558;2022-09-16T18:03:03;14.80;68.40
67147;DHT22;54061;52.036;5.558;2022-09-16T18:05:31;14.80;68.50
67147;DHT22;54061;52.036;5.558;2022-09-16T18:07:57;14.70;68.50
67147;DHT22;54061;52.036;5.558;2022-09-16T18:10:23;14.70;68.50
67147;DHT22;54061;52.036;5.558;2022-09-16T18:12:48;14.70;68.50
67147;DHT22;54061;52.036;5.558;2022-09-16T18:15:14;14.60;68.60
67147;DHT22;54061;52.036;5.558;2022-09-16T18:17:40;14.50;68.80
67147;DHT22;54061;52.036;5.558;2022-09-16T18:20:06;14.50;68.90
67147;DHT22;54061;52.036;5.558;2022-09-16T18:22:31;14.50;69.00
67147;DHT22;54061;52.036;5.558;2022-09-16T18:24:57;14.50;69.00
67147;DHT22;54061;52.036;5.558;2022-09-16T18:27:23;14.50;68.90
67147;DHT22;54061;52.036;5.558;2022-09-16T18:29:49;14.50;68.90
67147;DHT22;54061;52.036;5.558;2022-09-16T18:32:14;14.50;68.90
67147;DHT22;54061;52.036;5.558;2022-09-16T18:34:40;14.40;69.00